Time;durP1;ratioP1;P1;durP2;ratioP2;P2;SDS_P1;SDS_P2;PMS_P1;PMS_P2;Temp;Humidity;BMP_temperature;BMP_pressure;BME280_temperature;BME280_humidity;BME280_pressure;Samples;Min_cycle;Max_cycle;Signal;HPM_P1;HPM_P2
2023/04/10 00:02:44;;;;;;;;;;;;;;;6.42;73.10;101328.75;216247;1255;72486;-73
2023/04/10 00:07:37;;;;;;;;;;;;;;;6.31;73.42;101329.86;216247;1253;71095;-73
2023/04/10 00:12:30;;;;;;;;;;;;;;;6.23;73.35;101325.70;216255;1255;187575;-73
2023/04/10 00:17:23;;;;;;;;;;;;;;;6.11;72.73;101324.48;216381;1251;60412;-73
2023/04/10 00:22:15;;;;;;;;;;;;;;;6.04;73.40;101329.34;216267;1251;60461;-72
2023/04/10 00:27:08;;;;;;;;;;;;;;;5.97;73.03;101321.76;216286;1251;60539;-73
2023/04/10 00:32:01;;;;;;;;;;;;;;;5.85;72.81;101324.15;216336;1253;60894;-72
2023/04/10 00:36:54;;;;;;;;;;;;;;;5.82;73.20;101328.11;216214;1253;60473;-73
2023/04/10 00:41:47;;;;;;;;;;;;;;;5.73;73.19;101335.98;216265;1253;60532;-73
2023/04/10 00:46:40;;;;;;;;;;;;;;;5.67;73.57;101340.16;216248;1253;60470;-72
2023/04/10 00:51:33;;;;;;;;;;;;;;;5.62;73.55;101339.42;216358;1252;60553;-72
2023/04/10 00:56:26;;;;;;;;;;;;;;;5.55;73.43;101340.80;216276;1252;60560;-73
2023/04/10 01:01:18;;;;;;;;;;;;;;;5.46;72.82;101342.08;216253;1253;60542;-73
2023/04/10 01:06:31;;;;;;;;;;;;;;;5.38;73.12;101353.39;216401;1253;60544;-72
2023/04/10 01:11:27;;;;;;;;;;;;;;;5.30;73.02;101350.97;216390;1255;60605;-73
2023/04/10 01:16:36;;;;;;;;;;;;;;;5.27;73.68;101347.05;216231;1253;73848;-73
2023/04/10 01:21:30;;;;;;;;;;;;;;;5.28;74.01;101345.20;216088;1251;73363;-73
2023/04/10 01:26:36;;;;;;;;;;;;;;;5.23;73.46;101339.27;216484;1251;61159;-73
2023/04/10 01:31:35;;;;;;;;;;;;;;;5.13;73.32;101341.73;216485;1253;69041;-73
2023/04/10 01:36:31;;;;;;;;;;;;;;;5.03;73.13;101338.66;216477;1254;60425;-72
2023/04/10 01:41:26;;;;;;;;;;;;;;;4.96;73.50;101336.95;216386;1255;72308;-73
2023/04/10 01:46:21;;;;;;;;;;;;;;;4.93;74.18;101328.75;216290;1251;73281;-73
2023/04/10 01:51:15;;;;;;;;;;;;;;;4.94;74.45;101339.41;216373;1255;60447;-73
2023/04/10 01:56:08;;;;;;;;;;;;;;;4.90;74.20;101337.34;216397;1253;67144;-72
2023/04/10 02:01:08;;;;;;;;;;;;;;;4.81;73.74;101331.55;216368;1251;60572;-73
2023/04/10 02:06:18;;;;;;;;;;;;;;;4.74;73.66;101326.23;216209;1253;74334;-73
2023/04/10 02:11:10;;;;;;;;;;;;;;;4.62;73.88;101325.27;216241;1253;60456;-72
2023/04/10 02:16:07;;;;;;;;;;;;;;;4.57;73.81;101327.10;216319;1251;60457;-73
2023/04/10 02:21:00;;;;;;;;;;;;;;;4.52;74.05;101325.10;216226;1250;65328;-73
2023/04/10 02:25:55;;;;;;;;;;;;;;;4.45;74.09;101331.95;216420;1253;60521;-73
2023/04/10 02:30:47;;;;;;;;;;;;;;;4.41;74.05;101335.86;216371;1253;73852;-72
2023/04/10 02:35:41;;;;;;;;;;;;;;;4.31;73.92;101341.02;216447;1253;60311;-72
2023/04/10 02:40:34;;;;;;;;;;;;;;;4.27;73.86;101335.66;216273;1253;60403;-73
2023/04/10 02:45:40;;;;;;;;;;;;;;;4.23;74.20;101338.70;216358;1255;66901;-72
2023/04/10 02:50:35;;;;;;;;;;;;;;;4.19;74.41;101343.68;216195;1255;60504;-73
2023/04/10 02:55:27;;;;;;;;;;;;;;;4.15;74.16;101342.60;216270;1251;60449;-73
2023/04/10 03:00:20;;;;;;;;;;;;;;;4.10;74.47;101345.56;216270;1251;60518;-73
2023/04/10 03:05:42;;;;;;;;;;;;;;;4.03;74.39;101343.66;216124;1253;60514;-73
2023/04/10 03:10:36;;;;;;;;;;;;;;;3.97;74.60;101339.39;216312;1253;60528;-72
2023/04/10 03:15:28;;;;;;;;;;;;;;;3.99;74.96;101345.33;216336;1253;60491;-72
2023/04/10 03:20:22;;;;;;;;;;;;;;;3.92;74.18;101347.38;216308;1250;75724;-73
2023/04/10 03:25:14;;;;;;;;;;;;;;;3.86;74.59;101352.52;216334;1253;62028;-73
2023/04/10 03:30:08;;;;;;;;;;;;;;;3.79;74.36;101345.98;216454;1255;61724;-73
2023/04/10 03:35:04;;;;;;;;;;;;;;;3.70;74.43;101342.42;216517;1253;66689;-73
2023/04/10 03:39:57;;;;;;;;;;;;;;;3.67;74.72;101339.29;216560;1255;60485;-72
2023/04/10 03:44:50;;;;;;;;;;;;;;;3.62;74.81;101338.02;216276;1256;60637;-72
2023/04/10 03:49:43;;;;;;;;;;;;;;;3.60;74.97;101336.52;216169;1253;75136;-73
2023/04/10 03:54:36;;;;;;;;;;;;;;;3.56;74.75;101335.95;216367;1253;60457;-73
2023/04/10 03:59:29;;;;;;;;;;;;;;;3.52;75.08;101337.48;216284;1251;65762;-72
2023/04/10 04:04:32;;;;;;;;;;;;;;;3.54;75.04;101340.52;216403;1251;60582;-73
2023/04/10 04:09:48;;;;;;;;;;;;;;;3.56;74.77;101349.70;216274;1251;74225;-73
2023/04/10 04:14:58;;;;;;;;;;;;;;;3.58;74.78;101346.05;216326;1255;70576;-73
2023/04/10 04:20:29;;;;;;;;;;;;;;;3.68;75.43;101346.91;215109;1264;60473;-73
2023/04/10 04:25:36;;;;;;;;;;;;;;;3.81;75.64;101353.83;215926;1255;65575;-73
2023/04/10 04:31:07;;;;;;;;;;;;;;;3.92;75.59;101356.45;216271;1251;60454;-72
2023/04/10 04:36:26;;;;;;;;;;;;;;;4.07;75.98;101359.52;216075;1251;72402;-73
2023/04/10 04:41:31;;;;;;;;;;;;;;;4.22;75.66;101362.17;216186;1255;72575;-73
2023/04/10 04:47:02;;;;;;;;;;;;;;;4.33;75.64;101364.79;215333;1261;60597;-73
2023/04/10 04:52:13;;;;;;;;;;;;;;;4.45;75.81;101376.73;215886;1251;65708;-73
2023/04/10 04:57:13;;;;;;;;;;;;;;;4.56;75.83;101378.36;216261;1251;60521;-72
2023/04/10 05:02:25;;;;;;;;;;;;;;;4.65;75.76;101378.98;216409;1254;72535;-73
2023/04/10 05:07:33;;;;;;;;;;;;;;;4.70;75.77;101384.90;216353;1251;70836;-73
2023/04/10 05:12:39;;;;;;;;;;;;;;;4.79;75.79;101398.45;216284;1251;60559;-72
2023/04/10 05:17:49;;;;;;;;;;;;;;;4.90;75.70;101409.84;216156;1251;67075;-73
2023/04/10 05:23:01;;;;;;;;;;;;;;;5.01;75.69;101407.27;216272;1251;60536;-73
2023/04/10 05:28:19;;;;;;;;;;;;;;;5.15;75.65;101416.89;216201;1255;74746;-72
2023/04/10 05:33:18;;;;;;;;;;;;;;;5.35;75.64;101415.83;216252;1251;71244;-73
2023/04/10 05:38:28;;;;;;;;;;;;;;;5.64;75.75;101420.68;216218;1251;60651;-72
2023/04/10 05:43:36;;;;;;;;;;;;;;;5.99;75.74;101422.55;216294;1251;65724;-73
2023/04/10 05:48:50;;;;;;;;;;;;;;;6.38;75.66;101422.63;216216;1251;60462;-73
2023/04/10 05:53:59;;;;;;;;;;;;;;;6.70;76.20;101417.66;216429;1251;74234;-73
2023/04/10 05:59:06;;;;;;;;;;;;;;;7.05;77.57;101418.83;216370;1251;71457;-72
2023/04/10 06:04:17;;;;;;;;;;;;;;;7.28;78.04;101416.65;216140;1256;61453;-72
2023/04/10 06:09:13;;;;;;;;;;;;;;;7.47;78.19;101422.80;216096;1251;67539;-72
2023/04/10 06:14:06;;;;;;;;;;;;;;;7.62;78.16;101414.10;216141;1251;60425;-72
2023/04/10 06:19:04;;;;;;;;;;;;;;;7.76;78.46;101415.30;216058;1251;72519;-72
2023/04/10 06:23:57;;;;;;;;;;;;;;;7.86;78.20;101417.27;216138;1254;60531;-72
2023/04/10 06:28:49;;;;;;;;;;;;;;;8.13;78.17;101418.83;216297;1251;60440;-72
2023/04/10 06:33:43;;;;;;;;;;;;;;;8.49;77.95;101424.52;216346;1251;65862;-72
2023/04/10 06:38:36;;;;;;;;;;;;;;;9.02;77.71;101422.95;216323;1256;60555;-72
2023/04/10 06:43:31;;;;;;;;;;;;;;;9.78;76.48;101419.56;216248;1251;72795;-72
2023/04/10 06:48:23;;;;;;;;;;;;;;;9.82;76.34;101422.98;216234;1254;72199;-72
2023/04/10 06:53:16;;;;;;;;;;;;;;;9.82;76.60;101419.88;216292;1254;60479;-72
2023/04/10 06:58:09;;;;;;;;;;;;;;;9.85;76.67;101422.23;216334;1251;62115;-72
2023/04/10 07:03:01;;;;;;;;;;;;;;;9.96;76.85;101422.70;216054;1254;60460;-72
2023/04/10 07:07:54;;;;;;;;;;;;;;;10.15;76.76;101426.23;216128;1254;60467;-72
2023/04/10 07:12:47;;;;;;;;;;;;;;;10.40;76.38;101429.08;216043;1251;60440;-72
2023/04/10 07:17:40;;;;;;;;;;;;;;;10.85;75.76;101431.37;216432;1254;60543;-72
2023/04/10 07:22:33;;;;;;;;;;;;;;;14.23;70.53;101418.73;216211;1251;61145;-72
2023/04/10 07:27:26;;;;;;;;;;;;;;;18.51;64.92;101409.86;216145;1256;60495;-72
2023/04/10 07:32:19;;;;;;;;;;;;;;;20.72;61.65;101402.45;216360;1251;60533;-73
2023/04/10 07:37:12;;;;;;;;;;;;;;;23.97;56.95;101397.23;216160;1254;60503;-74
2023/04/10 07:42:06;;;;;;;;;;;;;;;25.71;53.77;101397.84;216170;1251;60530;-73
2023/04/10 07:46:59;;;;;;;;;;;;;;;24.68;54.55;101399.95;216097;1251;68230;-73
2023/04/10 07:51:51;;;;;;;;;;;;;;;24.94;52.62;101399.15;216195;1253;60439;-73
2023/04/10 07:56:44;;;;;;;;;;;;;;;24.24;51.33;101399.64;216056;1254;60533;-73
2023/04/10 08:01:37;;;;;;;;;;;;;;;24.77;50.38;101400.92;216251;1251;60457;-73
2023/04/10 08:06:31;;;;;;;;;;;;;;;24.51;49.85;101397.64;216440;1254;60479;-73
2023/04/10 08:11:26;;;;;;;;;;;;;;;23.48;49.97;101394.05;216415;1253;60473;-73
2023/04/10 08:16:20;;;;;;;;;;;;;;;22.52;51.05;101392.66;216417;1253;60444;-73
2023/04/10 08:21:13;;;;;;;;;;;;;;;22.68;50.08;101389.14;216390;1253;72956;-73
2023/04/10 08:26:06;;;;;;;;;;;;;;;23.19;49.21;101378.02;216390;1251;60455;-73
2023/04/10 08:30:59;;;;;;;;;;;;;;;24.32;46.91;101376.75;216432;1255;60638;-73
2023/04/10 08:35:51;;;;;;;;;;;;;;;24.23;45.90;101374.00;216411;1253;60523;-73
2023/04/10 08:40:44;;;;;;;;;;;;;;;23.39;46.79;101372.39;216419;1251;60547;-73
2023/04/10 08:45:37;;;;;;;;;;;;;;;23.34;46.37;101367.38;216445;1253;60539;-73
2023/04/10 08:50:32;;;;;;;;;;;;;;;23.72;45.45;101366.05;216344;1253;60531;-73
2023/04/10 08:55:26;;;;;;;;;;;;;;;23.97;45.49;101363.41;216416;1251;60400;-74
2023/04/10 09:00:18;;;;;;;;;;;;;;;24.25;44.80;101365.27;216310;1254;67240;-74
2023/04/10 09:05:15;;;;;;;;;;;;;;;23.14;45.50;101361.52;216320;1251;60457;-73
2023/04/10 09:10:08;;;;;;;;;;;;;;;24.98;42.92;101360.54;216606;1253;60482;-73
2023/04/10 09:15:01;;;;;;;;;;;;;;;24.63;43.11;101355.41;216464;1253;72597;-74
2023/04/10 09:19:55;;;;;;;;;;;;;;;23.69;43.42;101351.10;216444;1255;60444;-73
2023/04/10 09:24:48;;;;;;;;;;;;;;;23.33;43.76;101345.67;216571;1251;66342;-73
2023/04/10 09:29:47;;;;;;;;;;;;;;;22.93;43.86;101340.30;216513;1253;60470;-73
2023/04/10 09:34:53;;;;;;;;;;;;;;;23.29;43.27;101334.27;216364;1251;73929;-74
2023/04/10 09:39:46;;;;;;;;;;;;;;;24.31;42.00;101323.11;216462;1253;72815;-73
2023/04/10 09:44:40;;;;;;;;;;;;;;;25.80;39.33;101322.21;216418;1252;60505;-73
2023/04/10 09:49:44;;;;;;;;;;;;;;;26.80;38.49;101314.81;216427;1251;65870;-73
2023/04/10 09:54:37;;;;;;;;;;;;;;;26.57;37.93;101312.20;216515;1251;60537;-73
2023/04/10 09:59:31;;;;;;;;;;;;;;;27.04;37.71;101302.57;216476;1252;72900;-73
2023/04/10 10:04:24;;;;;;;;;;;;;;;28.86;36.26;101297.74;216478;1255;72596;-73
2023/04/10 10:09:17;;;;;;;;;;;;;;;30.62;34.95;101290.24;216471;1252;65474;-73
2023/04/10 10:14:15;;;;;;;;;;;;;;;31.86;33.12;101287.85;216454;1255;60558;-74
2023/04/10 10:19:25;;;;;;;;;;;;;;;32.36;32.10;101282.46;216463;1253;60441;-73
2023/04/10 10:24:20;;;;;;;;;;;;;;;32.10;31.94;101278.97;216511;1251;78584;-73
2023/04/10 10:29:16;;;;;;;;;;;;;;;33.07;30.45;101266.48;216492;1251;72414;-73
2023/04/10 10:34:09;;;;;;;;;;;;;;;33.03;29.25;101265.81;216485;1255;60337;-74
2023/04/10 10:39:26;;;;;;;;;;;;;;;33.61;29.04;101265.38;216363;1252;67398;-73
2023/04/10 10:44:52;;;;;;;;;;;;;;;31.57;29.39;101254.98;216371;1251;60452;-74
2023/04/10 10:49:55;;;;;;;;;;;;;;;27.83;31.84;101252.50;215402;1257;73790;-73
2023/04/10 10:54:48;;;;;;;;;;;;;;;25.33;34.07;101255.38;215482;1259;72317;-73
2023/04/10 10:59:51;;;;;;;;;;;;;;;25.21;34.14;101248.93;215411;1258;60530;-74
2023/04/10 11:04:45;;;;;;;;;;;;;;;28.33;33.64;101237.73;215539;1257;60550;-74
2023/04/10 11:09:48;;;;;;;;;;;;;;;30.36;32.12;101232.39;215553;1257;60449;-73
2023/04/10 11:14:42;;;;;;;;;;;;;;;31.39;31.06;101230.39;215466;1257;74479;-73
2023/04/10 11:19:59;;;;;;;;;;;;;;;29.10;31.87;101228.07;215466;1257;72448;-73
2023/04/10 11:24:57;;;;;;;;;;;;;;;26.47;33.85;101220.48;216004;1255;60434;-73
2023/04/10 11:29:50;;;;;;;;;;;;;;;25.10;34.82;101220.02;216517;1253;66937;-73
2023/04/10 11:34:46;;;;;;;;;;;;;;;26.46;34.89;101212.13;216474;1251;60427;-74
2023/04/10 11:39:38;;;;;;;;;;;;;;;27.87;33.76;101204.38;216445;1251;72911;-74
2023/04/10 11:44:34;;;;;;;;;;;;;;;26.35;33.70;101201.02;216398;1253;60480;-73
2023/04/10 11:49:28;;;;;;;;;;;;;;;24.22;34.83;101198.13;216441;1251;60447;-73
2023/04/10 11:54:21;;;;;;;;;;;;;;;22.95;36.49;101191.60;216382;1253;67805;-74
2023/04/10 11:59:18;;;;;;;;;;;;;;;22.16;37.64;101193.04;216374;1252;60491;-73
2023/04/10 12:04:15;;;;;;;;;;;;;;;21.44;38.56;101194.91;216404;1253;72585;-73
2023/04/10 12:09:20;;;;;;;;;;;;;;;20.97;39.32;101189.66;216354;1251;106669;-73
2023/04/10 12:14:12;;;;;;;;;;;;;;;20.39;40.02;101179.90;216447;1251;60557;-73
2023/04/10 12:19:05;;;;;;;;;;;;;;;20.01;41.08;101175.57;216391;1251;60529;-74
2023/04/10 12:23:58;;;;;;;;;;;;;;;19.92;41.33;101170.07;216432;1253;60441;-73
2023/04/10 12:28:53;;;;;;;;;;;;;;;19.98;41.80;101161.71;216359;1251;60525;-73
2023/04/10 12:33:46;;;;;;;;;;;;;;;20.10;41.66;101160.11;216238;1251;73748;-73
2023/04/10 12:38:40;;;;;;;;;;;;;;;20.12;41.21;101158.66;216308;1253;60777;-73
2023/04/10 12:43:34;;;;;;;;;;;;;;;19.81;41.02;101162.11;216299;1251;67190;-73
2023/04/10 12:48:27;;;;;;;;;;;;;;;19.30;42.23;101162.40;216327;1253;60412;-73
2023/04/10 12:53:20;;;;;;;;;;;;;;;18.83;44.52;101160.45;216417;1251;60499;-73
2023/04/10 12:58:18;;;;;;;;;;;;;;;18.44;45.64;101153.25;216525;1251;60493;-73
2023/04/10 13:03:15;;;;;;;;;;;;;;;18.19;45.32;101146.25;216363;1253;60477;-72
2023/04/10 13:08:08;;;;;;;;;;;;;;;17.97;46.01;101148.52;216408;1251;68369;-73
2023/04/10 13:13:01;;;;;;;;;;;;;;;17.72;47.18;101147.59;216392;1251;60466;-73
2023/04/10 13:17:54;;;;;;;;;;;;;;;17.76;47.69;101144.41;216460;1253;73797;-73
2023/04/10 13:22:46;;;;;;;;;;;;;;;18.09;46.78;101134.75;216414;1251;60492;-73
2023/04/10 13:27:39;;;;;;;;;;;;;;;19.09;45.73;101128.38;216293;1255;60457;-73
2023/04/10 13:32:32;;;;;;;;;;;;;;;19.21;44.04;101123.32;216246;1252;60448;-73
2023/04/10 13:37:26;;;;;;;;;;;;;;;18.61;43.93;101121.85;216293;1253;60537;-73
2023/04/10 13:42:18;;;;;;;;;;;;;;;18.25;44.59;101120.25;216345;1253;73453;-73
2023/04/10 13:47:11;;;;;;;;;;;;;;;18.47;44.96;101121.11;216376;1251;60564;-73
2023/04/10 13:52:04;;;;;;;;;;;;;;;18.44;45.18;101121.31;216359;1252;60442;-73
2023/04/10 13:56:58;;;;;;;;;;;;;;;18.25;45.34;101117.61;216310;1253;60471;-73
2023/04/10 14:01:51;;;;;;;;;;;;;;;18.31;46.05;101107.73;216354;1251;60544;-73
2023/04/10 14:06:44;;;;;;;;;;;;;;;18.97;46.78;101104.09;216366;1251;74618;-73
2023/04/10 14:11:37;;;;;;;;;;;;;;;19.71;46.51;101094.73;216251;1253;60534;-73
2023/04/10 14:16:29;;;;;;;;;;;;;;;20.02;45.54;101090.21;216357;1253;60518;-72
2023/04/10 14:21:22;;;;;;;;;;;;;;;20.14;45.61;101085.61;216343;1253;60541;-73
2023/04/10 14:26:15;;;;;;;;;;;;;;;20.25;45.81;101074.86;216290;1251;60486;-73
2023/04/10 14:31:08;;;;;;;;;;;;;;;20.33;45.78;101076.66;216344;1253;60506;-73
2023/04/10 14:36:01;;;;;;;;;;;;;;;20.33;45.36;101075.42;216356;1253;60416;-73
2023/04/10 14:40:53;;;;;;;;;;;;;;;20.23;44.62;101069.45;216411;1251;60436;-73
2023/04/10 14:45:46;;;;;;;;;;;;;;;20.13;44.82;101063.63;216367;1253;60534;-73
2023/04/10 14:50:39;;;;;;;;;;;;;;;20.04;44.44;101056.04;216485;1251;60451;-73
2023/04/10 14:55:32;;;;;;;;;;;;;;;19.98;43.74;101055.96;216479;1253;60534;-74
2023/04/10 15:00:25;;;;;;;;;;;;;;;19.92;43.38;101050.62;216378;1255;60537;-74
2023/04/10 15:05:18;;;;;;;;;;;;;;;19.91;43.18;101048.88;216346;1250;60554;-75
2023/04/10 15:10:11;;;;;;;;;;;;;;;19.90;42.28;101045.73;216154;1251;60576;-75
2023/04/10 15:15:04;;;;;;;;;;;;;;;19.92;41.81;101041.47;216092;1251;60457;-75
2023/04/10 15:19:57;;;;;;;;;;;;;;;19.93;41.12;101032.67;216364;1251;60539;-74
2023/04/10 15:24:50;;;;;;;;;;;;;;;20.00;40.85;101029.02;216280;1251;60457;-74
2023/04/10 15:29:43;;;;;;;;;;;;;;;20.12;40.71;101021.24;216245;1251;62990;-75
2023/04/10 15:34:36;;;;;;;;;;;;;;;20.21;40.85;101013.88;216352;1251;60900;-74
2023/04/10 15:39:29;;;;;;;;;;;;;;;20.08;40.42;101007.59;216140;1251;60473;-73
2023/04/10 15:44:22;;;;;;;;;;;;;;;19.92;41.18;101003.66;216070;1255;60470;-73
2023/04/10 15:49:16;;;;;;;;;;;;;;;19.80;41.52;101003.14;216236;1251;60887;-74
2023/04/10 15:54:28;;;;;;;;;;;;;;;19.57;41.58;101001.55;216535;1251;60431;-74
2023/04/10 15:59:21;;;;;;;;;;;;;;;19.47;42.13;100999.25;215994;1253;60526;-74
2023/04/10 16:04:17;;;;;;;;;;;;;;;19.30;42.36;101001.60;216077;1255;60444;-74
2023/04/10 16:09:11;;;;;;;;;;;;;;;18.91;42.96;101003.88;216183;1251;72563;-74
2023/04/10 16:14:17;;;;;;;;;;;;;;;18.38;43.61;101004.65;216097;1251;73430;-74
2023/04/10 16:19:10;;;;;;;;;;;;;;;17.96;44.20;101005.41;216170;1251;60430;-74
2023/04/10 16:24:03;;;;;;;;;;;;;;;17.64;44.59;101002.67;216229;1251;60393;-74
2023/04/10 16:28:56;;;;;;;;;;;;;;;17.33;44.72;101002.00;216128;1251;60518;-74
2023/04/10 16:33:49;;;;;;;;;;;;;;;17.12;45.15;100992.67;216208;1253;60454;-74
2023/04/10 16:38:42;;;;;;;;;;;;;;;16.97;45.50;100994.34;216166;1251;60456;-74
2023/04/10 16:43:35;;;;;;;;;;;;;;;16.78;45.82;100995.80;216234;1253;60415;-74
2023/04/10 16:48:28;;;;;;;;;;;;;;;16.54;46.48;100994.30;216279;1255;60543;-74
2023/04/10 16:53:21;;;;;;;;;;;;;;;16.26;47.09;100997.35;216111;1255;60582;-74
2023/04/10 16:58:18;;;;;;;;;;;;;;;15.97;47.98;100998.09;216113;1252;74190;-74
2023/04/10 17:03:13;;;;;;;;;;;;;;;15.64;48.69;101004.89;216107;1253;71236;-74
2023/04/10 17:08:07;;;;;;;;;;;;;;;15.33;49.41;100999.94;216662;1253;61311;-74
2023/04/10 17:13:00;;;;;;;;;;;;;;;15.04;50.17;100993.92;216066;1253;60473;-74
2023/04/10 17:17:53;;;;;;;;;;;;;;;14.72;50.72;100995.57;216178;1251;60537;-73
2023/04/10 17:22:46;;;;;;;;;;;;;;;14.39;51.41;101001.12;215974;1251;60473;-74
2023/04/10 17:27:39;;;;;;;;;;;;;;;14.08;52.09;101009.46;216296;1255;60558;-74
2023/04/10 17:32:32;;;;;;;;;;;;;;;13.84;52.68;101007.70;216248;1251;60429;-73
2023/04/10 17:37:25;;;;;;;;;;;;;;;13.59;53.08;101007.84;216169;1251;60457;-73
2023/04/10 17:42:19;;;;;;;;;;;;;;;13.33;53.73;101006.00;216250;1252;60564;-73
2023/04/10 17:47:11;;;;;;;;;;;;;;;13.08;54.03;101005.71;216221;1251;73490;-74
2023/04/10 17:52:05;;;;;;;;;;;;;;;12.82;54.39;101006.98;216291;1253;60451;-74
2023/04/10 17:56:58;;;;;;;;;;;;;;;12.60;54.94;101006.87;216540;1253;60457;-73
2023/04/10 18:01:50;;;;;;;;;;;;;;;12.40;55.35;101005.55;216477;1253;60483;-73
2023/04/10 18:06:44;;;;;;;;;;;;;;;12.18;55.82;101004.89;216495;1252;60469;-73
2023/04/10 18:11:36;;;;;;;;;;;;;;;12.00;56.35;101004.61;216183;1253;60435;-73
2023/04/10 18:16:30;;;;;;;;;;;;;;;11.82;56.80;101005.69;216262;1252;60460;-73
2023/04/10 18:21:24;;;;;;;;;;;;;;;11.66;57.07;101006.46;216147;1250;60801;-73
2023/04/10 18:26:19;;;;;;;;;;;;;;;11.47;57.17;101003.87;216151;1253;66843;-73
2023/04/10 18:31:14;;;;;;;;;;;;;;;11.34;57.90;101000.52;216254;1255;60438;-73
2023/04/10 18:36:09;;;;;;;;;;;;;;;11.32;58.54;100995.97;216114;1254;72795;-73
2023/04/10 18:41:02;;;;;;;;;;;;;;;11.30;58.95;100998.52;216257;1253;73538;-73
2023/04/10 18:45:55;;;;;;;;;;;;;;;11.31;59.14;101004.46;216356;1251;60542;-73
2023/04/10 18:50:50;;;;;;;;;;;;;;;11.26;59.24;100998.64;216354;1251;60324;-73
2023/04/10 18:55:49;;;;;;;;;;;;;;;11.14;59.33;100994.58;216032;1253;60437;-72
2023/04/10 19:00:42;;;;;;;;;;;;;;;10.99;59.64;100989.96;216192;1253;74465;-73
2023/04/10 19:05:35;;;;;;;;;;;;;;;10.84;59.92;100990.53;216066;1253;72357;-74
2023/04/10 19:10:28;;;;;;;;;;;;;;;10.67;60.02;100989.48;215899;1251;60560;-73
2023/04/10 19:15:20;;;;;;;;;;;;;;;10.52;60.47;100988.99;216158;1253;60297;-73
2023/04/10 19:20:13;;;;;;;;;;;;;;;10.38;60.74;100985.57;216018;1251;60537;-73
2023/04/10 19:25:06;;;;;;;;;;;;;;;10.26;61.21;100984.77;216080;1251;60541;-74
2023/04/10 19:30:00;;;;;;;;;;;;;;;10.15;61.45;100979.66;216090;1253;71314;-73
2023/04/10 19:34:52;;;;;;;;;;;;;;;10.04;61.69;100980.96;216405;1253;60638;-73
2023/04/10 19:39:45;;;;;;;;;;;;;;;9.89;61.99;100976.80;216177;1251;60461;-73
2023/04/10 19:44:38;;;;;;;;;;;;;;;9.76;62.28;100975.10;216131;1255;60517;-73
2023/04/10 19:49:31;;;;;;;;;;;;;;;9.63;62.34;100968.20;216418;1253;60455;-73
2023/04/10 19:54:24;;;;;;;;;;;;;;;9.51;62.63;100970.52;216080;1253;60431;-73
2023/04/10 19:59:17;;;;;;;;;;;;;;;9.45;62.86;100967.95;216213;1255;60421;-73
2023/04/10 20:04:10;;;;;;;;;;;;;;;9.35;62.83;100968.87;216344;1251;63904;-73
2023/04/10 20:09:03;;;;;;;;;;;;;;;9.22;63.08;100969.05;216240;1251;60443;-74
2023/04/10 20:13:59;;;;;;;;;;;;;;;9.11;63.17;100965.15;216211;1255;60556;-74
2023/04/10 20:18:52;;;;;;;;;;;;;;;8.97;63.33;100958.54;216290;1251;72975;-73
2023/04/10 20:23:46;;;;;;;;;;;;;;;8.84;63.51;100956.27;216209;1251;60904;-73
2023/04/10 20:28:39;;;;;;;;;;;;;;;8.74;63.69;100953.06;216264;1253;60453;-73
2023/04/10 20:33:32;;;;;;;;;;;;;;;8.60;63.99;100949.89;216279;1253;60630;-73
2023/04/10 20:38:24;;;;;;;;;;;;;;;8.44;64.33;100949.26;216348;1252;60534;-73
2023/04/10 20:43:17;;;;;;;;;;;;;;;8.34;64.33;100948.42;216294;1253;60536;-73
2023/04/10 20:48:10;;;;;;;;;;;;;;;8.21;64.43;100951.67;216157;1255;60485;-73
2023/04/10 20:53:03;;;;;;;;;;;;;;;8.13;64.74;100950.20;216171;1255;60453;-73
2023/04/10 20:57:56;;;;;;;;;;;;;;;8.02;64.91;100945.89;216254;1254;60467;-73
2023/04/10 21:02:49;;;;;;;;;;;;;;;7.93;64.86;100946.31;216392;1251;60149;-73
2023/04/10 21:07:44;;;;;;;;;;;;;;;7.87;65.14;100943.36;216252;1255;72412;-73
2023/04/10 21:12:37;;;;;;;;;;;;;;;7.75;65.50;100946.41;216128;1251;60573;-73
2023/04/10 21:17:30;;;;;;;;;;;;;;;7.64;65.55;100941.77;216269;1253;62654;-74
2023/04/10 21:22:23;;;;;;;;;;;;;;;7.57;65.58;100939.64;216334;1253;60883;-73
2023/04/10 21:27:16;;;;;;;;;;;;;;;7.52;65.86;100934.48;216220;1251;60799;-73
2023/04/10 21:32:09;;;;;;;;;;;;;;;7.38;65.97;100930.92;216137;1251;60300;-73
2023/04/10 21:37:02;;;;;;;;;;;;;;;7.28;66.05;100926.45;216221;1253;60438;-73
2023/04/10 21:41:55;;;;;;;;;;;;;;;7.19;66.16;100925.97;216221;1255;67432;-73
2023/04/10 21:46:49;;;;;;;;;;;;;;;7.09;66.35;100916.33;216267;1251;60431;-73
2023/04/10 21:51:41;;;;;;;;;;;;;;;7.02;66.53;100912.27;216029;1251;60495;-73
2023/04/10 21:56:35;;;;;;;;;;;;;;;6.96;66.73;100910.00;216203;1255;61254;-73
2023/04/10 22:01:28;;;;;;;;;;;;;;;6.88;66.90;100912.16;216155;1251;61235;-73
2023/04/10 22:06:22;;;;;;;;;;;;;;;6.82;66.79;100904.88;216123;1253;67058;-73
2023/04/10 22:11:15;;;;;;;;;;;;;;;6.71;67.03;100903.61;216273;1255;64491;-73
2023/04/10 22:16:07;;;;;;;;;;;;;;;6.69;67.31;100906.84;216330;1255;61352;-73
2023/04/10 22:21:00;;;;;;;;;;;;;;;6.64;67.17;100900.42;216337;1253;61323;-73
2023/04/10 22:25:53;;;;;;;;;;;;;;;6.57;67.45;100901.55;216191;1251;61244;-73
2023/04/10 22:30:46;;;;;;;;;;;;;;;6.47;67.45;100904.51;216436;1253;61238;-73
2023/04/10 22:35:39;;;;;;;;;;;;;;;6.38;67.37;100899.86;216194;1250;61241;-73
2023/04/10 22:40:32;;;;;;;;;;;;;;;6.28;67.36;100896.56;216376;1255;61238;-73
2023/04/10 22:45:28;;;;;;;;;;;;;;;6.18;67.40;100892.40;216300;1251;73322;-73
2023/04/10 22:50:20;;;;;;;;;;;;;;;6.12;67.90;100886.65;216246;1255;61243;-73
2023/04/10 22:55:14;;;;;;;;;;;;;;;6.04;68.00;100881.05;216395;1251;61328;-73
2023/04/10 23:00:09;;;;;;;;;;;;;;;5.93;68.02;100870.77;216185;1255;61214;-73
2023/04/10 23:05:02;;;;;;;;;;;;;;;5.90;68.38;100866.53;216217;1251;73474;-73
2023/04/10 23:09:54;;;;;;;;;;;;;;;5.86;68.10;100864.48;216280;1255;61398;-73
2023/04/10 23:14:47;;;;;;;;;;;;;;;5.80;68.29;100860.63;216320;1255;61285;-73
2023/04/10 23:19:40;;;;;;;;;;;;;;;5.70;68.12;100850.30;216361;1255;61290;-73
2023/04/10 23:24:32;;;;;;;;;;;;;;;5.66;68.52;100845.82;216209;1255;61239;-73
2023/04/10 23:29:25;;;;;;;;;;;;;;;5.58;68.38;100838.27;216355;1255;61272;-73
2023/04/10 23:34:19;;;;;;;;;;;;;;;5.48;68.48;100832.77;216167;1255;61322;-73
2023/04/10 23:39:12;;;;;;;;;;;;;;;5.40;68.62;100827.42;216241;1256;61202;-73
2023/04/10 23:44:05;;;;;;;;;;;;;;;5.31;68.87;100820.05;216204;1256;61244;-73
2023/04/10 23:48:57;;;;;;;;;;;;;;;5.33;68.94;100812.75;216412;1254;61920;-73
2023/04/10 23:53:50;;;;;;;;;;;;;;;5.32;68.88;100806.86;216374;1257;61344;-72
2023/04/10 23:58:43;;;;;;;;;;;;;;;5.26;68.99;100800.07;216197;1256;61445;-73
